sensor_id;sensor_type;location;lat;lon;timestamp;pressure;altitude;pressure_sealevel;temperature;humidity
65394;BME280;52002;49.760;6.512;2023-06-19T00:01:14;99448.00;;;20.44;68.11
65394;BME280;52002;49.760;6.512;2023-06-19T00:03:39;99452.93;;;20.40;68.09
65394;BME280;52002;49.760;6.512;2023-06-19T00:06:05;99457.67;;;20.33;68.08
65394;BME280;52002;49.760;6.512;2023-06-19T00:08:31;99461.66;;;20.31;68.28
65394;BME280;52002;49.760;6.512;2023-06-19T00:10:56;99470.39;;;20.25;68.30
65394;BME280;52002;49.760;6.512;2023-06-19T00:13:22;99471.98;;;20.23;68.61
65394;BME280;52002;49.760;6.512;2023-06-19T00:15:47;99478.90;;;20.22;68.55
65394;BME280;52002;49.760;6.512;2023-06-19T00:18:13;99488.57;;;20.22;68.59
65394;BME280;52002;49.760;6.512;2023-06-19T00:20:38;99491.87;;;20.19;68.64
65394;BME280;52002;49.760;6.512;2023-06-19T00:23:05;99494.62;;;20.18;68.67
65394;BME280;52002;49.760;6.512;2023-06-19T00:25:31;99493.23;;;20.14;68.69
65394;BME280;52002;49.760;6.512;2023-06-19T00:27:57;99495.23;;;20.07;68.87
65394;BME280;52002;49.760;6.512;2023-06-19T00:30:22;99500.88;;;20.04;69.14
65394;BME280;52002;49.760;6.512;2023-06-19T00:32:48;99504.17;;;19.97;69.22
65394;BME280;52002;49.760;6.512;2023-06-19T00:35:17;99501.05;;;19.96;69.40
65394;BME280;52002;49.760;6.512;2023-06-19T00:37:43;99503.90;;;19.97;69.44
65394;BME280;52002;49.760;6.512;2023-06-19T00:40:24;99506.67;;;20.00;69.70
65394;BME280;52002;49.760;6.512;2023-06-19T00:42:51;99507.02;;;19.95;69.54
65394;BME280;52002;49.760;6.512;2023-06-19T00:45:16;99508.98;;;19.91;69.61
65394;BME280;52002;49.760;6.512;2023-06-19T00:47:42;99511.93;;;19.88;69.72
65394;BME280;52002;49.760;6.512;2023-06-19T00:50:07;99513.69;;;19.85;69.79
65394;BME280;52002;49.760;6.512;2023-06-19T00:52:33;99503.65;;;19.84;69.82
65394;BME280;52002;49.760;6.512;2023-06-19T00:54:59;99504.27;;;19.81;70.10
65394;BME280;52002;49.760;6.512;2023-06-19T00:57:24;99506.00;;;19.78;70.10
65394;BME280;52002;49.760;6.512;2023-06-19T00:59:50;99503.61;;;19.77;70.21
65394;BME280;52002;49.760;6.512;2023-06-19T01:02:19;99496.83;;;19.75;70.30
65394;BME280;52002;49.760;6.512;2023-06-19T01:04:52;99489.41;;;19.78;70.52
65394;BME280;52002;49.760;6.512;2023-06-19T01:07:43;99487.33;;;19.81;70.45
65394;BME280;52002;49.760;6.512;2023-06-19T01:10:10;99487.40;;;19.83;70.50
65394;BME280;52002;49.760;6.512;2023-06-19T01:12:39;99488.39;;;19.81;70.30
65394;BME280;52002;49.760;6.512;2023-06-19T01:15:07;99494.17;;;19.76;70.36
65394;BME280;52002;49.760;6.512;2023-06-19T01:17:35;99497.70;;;19.69;70.21
65394;BME280;52002;49.760;6.512;2023-06-19T01:20:01;99499.91;;;19.66;70.40
65394;BME280;52002;49.760;6.512;2023-06-19T01:22:35;99500.87;;;19.64;70.36
65394;BME280;52002;49.760;6.512;2023-06-19T01:25:01;99501.27;;;19.60;70.39
65394;BME280;52002;49.760;6.512;2023-06-19T01:27:26;99504.87;;;19.51;70.35
65394;BME280;52002;49.760;6.512;2023-06-19T01:29:56;99510.58;;;19.45;70.73
65394;BME280;52002;49.760;6.512;2023-06-19T01:32:34;99511.66;;;19.43;70.78
65394;BME280;52002;49.760;6.512;2023-06-19T01:35:04;99511.98;;;19.41;70.94
65394;BME280;52002;49.760;6.512;2023-06-19T01:37:31;99515.57;;;19.39;70.95
65394;BME280;52002;49.760;6.512;2023-06-19T01:39:59;99517.39;;;19.36;70.97
65394;BME280;52002;49.760;6.512;2023-06-19T01:42:27;99527.30;;;19.35;71.07
65394;BME280;52002;49.760;6.512;2023-06-19T01:44:53;99532.06;;;19.36;71.24
65394;BME280;52002;49.760;6.512;2023-06-19T01:47:19;99538.55;;;19.39;71.35
65394;BME280;52002;49.760;6.512;2023-06-19T01:49:49;99540.26;;;19.40;71.34
65394;BME280;52002;49.760;6.512;2023-06-19T01:52:14;99556.23;;;19.43;71.31
65394;BME280;52002;49.760;6.512;2023-06-19T01:54:40;99568.46;;;19.44;71.54
65394;BME280;52002;49.760;6.512;2023-06-19T01:57:06;99568.23;;;19.45;71.68
65394;BME280;52002;49.760;6.512;2023-06-19T01:59:31;99564.97;;;19.46;71.55
65394;BME280;52002;49.760;6.512;2023-06-19T02:01:56;99568.04;;;19.47;71.50
65394;BME280;52002;49.760;6.512;2023-06-19T02:04:22;99565.24;;;19.49;71.53
65394;BME280;52002;49.760;6.512;2023-06-19T02:06:47;99566.37;;;19.49;71.44
65394;BME280;52002;49.760;6.512;2023-06-19T02:09:13;99576.41;;;19.48;71.41
65394;BME280;52002;49.760;6.512;2023-06-19T02:11:38;99578.45;;;19.50;71.61
65394;BME280;52002;49.760;6.512;2023-06-19T02:14:03;99580.62;;;19.50;71.67
65394;BME280;52002;49.760;6.512;2023-06-19T02:16:29;99582.50;;;19.47;71.57
65394;BME280;52002;49.760;6.512;2023-06-19T02:18:54;99582.92;;;19.45;71.47
65394;BME280;52002;49.760;6.512;2023-06-19T02:21:20;99585.64;;;19.45;71.47
65394;BME280;52002;49.760;6.512;2023-06-19T02:23:46;99584.09;;;19.45;71.44
65394;BME280;52002;49.760;6.512;2023-06-19T02:26:11;99588.34;;;19.44;71.41
65394;BME280;52002;49.760;6.512;2023-06-19T02:28:36;99588.63;;;19.43;71.35
65394;BME280;52002;49.760;6.512;2023-06-19T02:31:02;99593.58;;;19.43;71.42
65394;BME280;52002;49.760;6.512;2023-06-19T02:33:28;99597.41;;;19.42;71.52
65394;BME280;52002;49.760;6.512;2023-06-19T02:35:54;99600.60;;;19.40;71.45
65394;BME280;52002;49.760;6.512;2023-06-19T02:38:27;99605.01;;;19.39;71.54
65394;BME280;52002;49.760;6.512;2023-06-19T02:40:55;99606.42;;;19.40;71.60
65394;BME280;52002;49.760;6.512;2023-06-19T02:43:22;99604.73;;;19.38;71.59
65394;BME280;52002;49.760;6.512;2023-06-19T02:45:48;99601.92;;;19.36;71.63
65394;BME280;52002;49.760;6.512;2023-06-19T02:48:13;99601.41;;;19.34;71.65
65394;BME280;52002;49.760;6.512;2023-06-19T02:50:39;99598.37;;;19.34;71.77
65394;BME280;52002;49.760;6.512;2023-06-19T02:53:04;99603.70;;;19.34;71.83
65394;BME280;52002;49.760;6.512;2023-06-19T02:55:29;99605.04;;;19.34;71.88
65394;BME280;52002;49.760;6.512;2023-06-19T02:57:55;99612.08;;;19.34;72.01
65394;BME280;52002;49.760;6.512;2023-06-19T03:00:20;99623.02;;;19.33;71.93
65394;BME280;52002;49.760;6.512;2023-06-19T03:02:45;99620.86;;;19.32;71.93
65394;BME280;52002;49.760;6.512;2023-06-19T03:05:13;99625.90;;;19.31;72.06
65394;BME280;52002;49.760;6.512;2023-06-19T03:07:42;99628.61;;;19.29;72.11
65394;BME280;52002;49.760;6.512;2023-06-19T03:10:07;99635.27;;;19.29;72.23
65394;BME280;52002;49.760;6.512;2023-06-19T03:12:32;99630.98;;;19.30;72.17
65394;BME280;52002;49.760;6.512;2023-06-19T03:14:58;99637.09;;;19.30;72.24
65394;BME280;52002;49.760;6.512;2023-06-19T03:17:23;99640.58;;;19.31;72.30
65394;BME280;52002;49.760;6.512;2023-06-19T03:19:48;99645.86;;;19.31;72.27
65394;BME280;52002;49.760;6.512;2023-06-19T03:22:14;99646.64;;;19.29;72.29
65394;BME280;52002;49.760;6.512;2023-06-19T03:24:39;99649.16;;;19.30;72.37
65394;BME280;52002;49.760;6.512;2023-06-19T03:27:05;99651.58;;;19.31;72.27
65394;BME280;52002;49.760;6.512;2023-06-19T03:29:30;99654.38;;;19.33;72.31
65394;BME280;52002;49.760;6.512;2023-06-19T03:31:56;99659.73;;;19.35;72.22
65394;BME280;52002;49.760;6.512;2023-06-19T03:34:21;99664.12;;;19.33;72.07
65394;BME280;52002;49.760;6.512;2023-06-19T03:36:46;99666.91;;;19.30;72.02
65394;BME280;52002;49.760;6.512;2023-06-19T03:39:12;99668.23;;;19.28;72.13
65394;BME280;52002;49.760;6.512;2023-06-19T03:41:37;99667.02;;;19.28;72.35
65394;BME280;52002;49.760;6.512;2023-06-19T03:44:03;99666.77;;;19.28;72.27
65394;BME280;52002;49.760;6.512;2023-06-19T03:46:28;99668.52;;;19.33;72.33
65394;BME280;52002;49.760;6.512;2023-06-19T03:48:53;99667.98;;;19.38;72.26
65394;BME280;52002;49.760;6.512;2023-06-19T03:51:19;99665.41;;;19.44;72.14
65394;BME280;52002;49.760;6.512;2023-06-19T03:53:44;99666.05;;;19.47;72.12
65394;BME280;52002;49.760;6.512;2023-06-19T03:56:10;99662.89;;;19.53;72.05
65394;BME280;52002;49.760;6.512;2023-06-19T03:58:35;99664.16;;;19.58;71.95
65394;BME280;52002;49.760;6.512;2023-06-19T04:01:01;99661.42;;;19.61;71.86
65394;BME280;52002;49.760;6.512;2023-06-19T04:03:26;99658.59;;;19.63;71.79
65394;BME280;52002;49.760;6.512;2023-06-19T04:05:51;99660.42;;;19.68;71.69
65394;BME280;52002;49.760;6.512;2023-06-19T04:08:17;99658.82;;;19.74;71.54
65394;BME280;52002;49.760;6.512;2023-06-19T04:10:42;99660.13;;;19.79;71.35
65394;BME280;52002;49.760;6.512;2023-06-19T04:13:08;99662.50;;;19.81;71.40
65394;BME280;52002;49.760;6.512;2023-06-19T04:15:33;99667.66;;;19.83;71.30
65394;BME280;52002;49.760;6.512;2023-06-19T04:18:01;99664.71;;;19.85;71.34
65394;BME280;52002;49.760;6.512;2023-06-19T04:20:26;99663.41;;;19.88;71.17
65394;BME280;52002;49.760;6.512;2023-06-19T04:22:52;99668.17;;;19.85;71.17
65394;BME280;52002;49.760;6.512;2023-06-19T04:25:17;99665.54;;;19.81;71.30
65394;BME280;52002;49.760;6.512;2023-06-19T04:27:43;99665.95;;;19.83;71.42
65394;BME280;52002;49.760;6.512;2023-06-19T04:30:11;99669.45;;;19.86;71.39
65394;BME280;52002;49.760;6.512;2023-06-19T04:32:37;99672.38;;;19.90;71.45
65394;BME280;52002;49.760;6.512;2023-06-19T04:35:09;99684.80;;;19.93;71.30
65394;BME280;52002;49.760;6.512;2023-06-19T04:37:35;99690.02;;;19.95;71.33
65394;BME280;52002;49.760;6.512;2023-06-19T04:40:01;99687.64;;;19.95;71.31
65394;BME280;52002;49.760;6.512;2023-06-19T04:42:26;99689.48;;;19.96;71.34
65394;BME280;52002;49.760;6.512;2023-06-19T04:44:52;99691.45;;;19.97;71.28
65394;BME280;52002;49.760;6.512;2023-06-19T04:47:20;99697.39;;;20.00;71.28
65394;BME280;52002;49.760;6.512;2023-06-19T04:49:46;99699.66;;;20.06;71.27
65394;BME280;52002;49.760;6.512;2023-06-19T04:52:11;99698.34;;;20.12;71.25
65394;BME280;52002;49.760;6.512;2023-06-19T04:54:37;99696.34;;;20.20;71.13
65394;BME280;52002;49.760;6.512;2023-06-19T04:57:02;99703.77;;;20.31;70.98
65394;BME280;52002;49.760;6.512;2023-06-19T04:59:28;99708.85;;;20.36;70.73
65394;BME280;52002;49.760;6.512;2023-06-19T05:01:56;99703.02;;;20.36;70.64
65394;BME280;52002;49.760;6.512;2023-06-19T05:04:21;99697.52;;;20.41;70.62
65394;BME280;52002;49.760;6.512;2023-06-19T05:06:48;99700.96;;;20.49;70.53
65394;BME280;52002;49.760;6.512;2023-06-19T05:09:13;99702.92;;;20.59;70.24
65394;BME280;52002;49.760;6.512;2023-06-19T05:11:39;99707.77;;;20.65;70.15
65394;BME280;52002;49.760;6.512;2023-06-19T05:14:04;99704.99;;;20.74;69.99
65394;BME280;52002;49.760;6.512;2023-06-19T05:16:29;99707.09;;;20.88;69.79
65394;BME280;52002;49.760;6.512;2023-06-19T05:18:55;99721.73;;;21.06;69.53
65394;BME280;52002;49.760;6.512;2023-06-19T05:21:20;99717.08;;;21.18;69.30
65394;BME280;52002;49.760;6.512;2023-06-19T05:23:45;99703.95;;;21.29;68.92
65394;BME280;52002;49.760;6.512;2023-06-19T05:26:16;99703.21;;;21.48;68.77
65394;BME280;52002;49.760;6.512;2023-06-19T05:28:41;99697.90;;;21.62;68.33
65394;BME280;52002;49.760;6.512;2023-06-19T05:31:06;99698.42;;;21.83;67.81
65394;BME280;52002;49.760;6.512;2023-06-19T05:33:32;99698.88;;;22.21;67.10
65394;BME280;52002;49.760;6.512;2023-06-19T05:35:57;99700.98;;;22.76;66.31
65394;BME280;52002;49.760;6.512;2023-06-19T05:38:22;99703.04;;;23.46;64.93
65394;BME280;52002;49.760;6.512;2023-06-19T05:40:51;99700.65;;;24.02;63.36
65394;BME280;52002;49.760;6.512;2023-06-19T05:43:17;99701.50;;;24.10;62.70
65394;BME280;52002;49.760;6.512;2023-06-19T05:45:44;99713.39;;;24.50;61.89
65394;BME280;52002;49.760;6.512;2023-06-19T05:48:09;99721.52;;;24.63;61.44
65394;BME280;52002;49.760;6.512;2023-06-19T05:50:34;99726.02;;;24.44;61.28
65394;BME280;52002;49.760;6.512;2023-06-19T05:53:00;99728.56;;;24.28;61.22
65394;BME280;52002;49.760;6.512;2023-06-19T05:55:25;99730.02;;;24.20;61.07
65394;BME280;52002;49.760;6.512;2023-06-19T05:57:53;99727.71;;;23.91;60.98
65394;BME280;52002;49.760;6.512;2023-06-19T06:00:19;99726.56;;;23.67;61.31
65394;BME280;52002;49.760;6.512;2023-06-19T06:02:45;99716.04;;;23.51;61.67
65394;BME280;52002;49.760;6.512;2023-06-19T06:05:11;99718.59;;;23.41;61.86
65394;BME280;52002;49.760;6.512;2023-06-19T06:07:37;99721.52;;;23.31;61.89
65394;BME280;52002;49.760;6.512;2023-06-19T06:10:02;99724.81;;;23.25;62.12
65394;BME280;52002;49.760;6.512;2023-06-19T06:12:28;99727.66;;;23.15;62.35
65394;BME280;52002;49.760;6.512;2023-06-19T06:14:53;99730.00;;;23.07;62.66
65394;BME280;52002;49.760;6.512;2023-06-19T06:17:19;99736.59;;;23.03;62.54
65394;BME280;52002;49.760;6.512;2023-06-19T06:19:44;99736.53;;;23.00;62.73
65394;BME280;52002;49.760;6.512;2023-06-19T06:22:09;99745.99;;;22.96;63.07
65394;BME280;52002;49.760;6.512;2023-06-19T06:24:35;99747.52;;;22.94;63.11
65394;BME280;52002;49.760;6.512;2023-06-19T06:27:00;99751.50;;;23.03;63.00
65394;BME280;52002;49.760;6.512;2023-06-19T06:29:25;99757.63;;;23.15;63.01
65394;BME280;52002;49.760;6.512;2023-06-19T06:31:51;99757.28;;;23.40;62.67
65394;BME280;52002;49.760;6.512;2023-06-19T06:34:19;99752.74;;;23.62;62.00
65394;BME280;52002;49.760;6.512;2023-06-19T06:36:45;99744.44;;;24.31;61.00
65394;BME280;52002;49.760;6.512;2023-06-19T06:39:10;99750.27;;;26.37;58.43
65394;BME280;52002;49.760;6.512;2023-06-19T06:41:36;99749.01;;;27.84;55.78
65394;BME280;52002;49.760;6.512;2023-06-19T06:44:02;99751.73;;;29.04;52.59
65394;BME280;52002;49.760;6.512;2023-06-19T06:46:28;99751.77;;;28.90;51.72
65394;BME280;52002;49.760;6.512;2023-06-19T06:48:53;99760.13;;;28.64;51.55
65394;BME280;52002;49.760;6.512;2023-06-19T06:51:18;99764.30;;;30.21;49.34
65394;BME280;52002;49.760;6.512;2023-06-19T06:53:44;99775.23;;;31.37;47.27
65394;BME280;52002;49.760;6.512;2023-06-19T06:56:10;99774.23;;;31.79;45.89
65394;BME280;52002;49.760;6.512;2023-06-19T06:58:35;99784.09;;;34.48;42.13
65394;BME280;52002;49.760;6.512;2023-06-19T07:01:01;99779.23;;;34.12;41.07
65394;BME280;52002;49.760;6.512;2023-06-19T07:03:26;99781.78;;;34.18;40.19
65394;BME280;52002;49.760;6.512;2023-06-19T07:05:55;99786.20;;;33.41;40.16
65394;BME280;52002;49.760;6.512;2023-06-19T07:08:20;99790.27;;;32.43;40.18
65394;BME280;52002;49.760;6.512;2023-06-19T07:10:46;99793.48;;;31.27;41.36
65394;BME280;52002;49.760;6.512;2023-06-19T07:13:11;99800.76;;;30.39;42.44
65394;BME280;52002;49.760;6.512;2023-06-19T07:15:36;99803.29;;;29.76;43.21
65394;BME280;52002;49.760;6.512;2023-06-19T07:18:02;99800.80;;;29.36;43.34
65394;BME280;52002;49.760;6.512;2023-06-19T07:20:27;99800.59;;;29.04;43.66
65394;BME280;52002;49.760;6.512;2023-06-19T07:22:53;99803.89;;;30.76;41.90
65394;BME280;52002;49.760;6.512;2023-06-19T07:25:18;99803.83;;;32.42;39.87
65394;BME280;52002;49.760;6.512;2023-06-19T07:27:44;99811.56;;;32.63;39.64
65394;BME280;52002;49.760;6.512;2023-06-19T07:30:10;99810.90;;;32.05;39.53
65394;BME280;52002;49.760;6.512;2023-06-19T07:32:36;99803.09;;;32.01;39.37
65394;BME280;52002;49.760;6.512;2023-06-19T07:35:02;99800.88;;;31.64;39.89
65394;BME280;52002;49.760;6.512;2023-06-19T07:37:28;99799.77;;;31.77;39.83
65394;BME280;52002;49.760;6.512;2023-06-19T07:39:53;99803.35;;;31.36;40.19
65394;BME280;52002;49.760;6.512;2023-06-19T07:42:19;99805.12;;;31.51;39.47
65394;BME280;52002;49.760;6.512;2023-06-19T07:44:45;99813.98;;;32.41;38.61
65394;BME280;52002;49.760;6.512;2023-06-19T07:47:12;99814.94;;;33.14;37.78
65394;BME280;52002;49.760;6.512;2023-06-19T07:49:39;99813.70;;;33.84;36.73
65394;BME280;52002;49.760;6.512;2023-06-19T07:52:05;99812.48;;;33.88;36.64
65394;BME280;52002;49.760;6.512;2023-06-19T07:54:30;99812.45;;;33.77;36.03
65394;BME280;52002;49.760;6.512;2023-06-19T07:56:56;99814.38;;;33.56;36.16
65394;BME280;52002;49.760;6.512;2023-06-19T07:59:22;99822.11;;;33.75;35.95
65394;BME280;52002;49.760;6.512;2023-06-19T08:01:48;99832.98;;;35.21;34.63
65394;BME280;52002;49.760;6.512;2023-06-19T08:04:13;99829.95;;;36.22;33.11
65394;BME280;52002;49.760;6.512;2023-06-19T08:06:39;99827.61;;;35.87;32.48
65394;BME280;52002;49.760;6.512;2023-06-19T08:09:04;99821.67;;;35.22;33.10
65394;BME280;52002;49.760;6.512;2023-06-19T08:11:30;99825.52;;;34.53;33.55
65394;BME280;52002;49.760;6.512;2023-06-19T08:13:55;99829.85;;;34.07;34.11
65394;BME280;52002;49.760;6.512;2023-06-19T08:16:20;99826.17;;;34.12;34.01
65394;BME280;52002;49.760;6.512;2023-06-19T08:18:46;99821.14;;;34.11;33.78
65394;BME280;52002;49.760;6.512;2023-06-19T08:21:12;99824.27;;;34.40;33.52
65394;BME280;52002;49.760;6.512;2023-06-19T08:23:38;99822.35;;;34.87;33.38
65394;BME280;52002;49.760;6.512;2023-06-19T08:26:05;99820.48;;;34.71;33.54
65394;BME280;52002;49.760;6.512;2023-06-19T08:28:34;99823.86;;;34.50;33.36
65394;BME280;52002;49.760;6.512;2023-06-19T08:30:59;99827.60;;;34.85;33.09
65394;BME280;52002;49.760;6.512;2023-06-19T08:33:25;99824.25;;;34.87;32.91
65394;BME280;52002;49.760;6.512;2023-06-19T08:35:50;99828.33;;;34.81;32.37
65394;BME280;52002;49.760;6.512;2023-06-19T08:38:16;99822.02;;;34.18;32.73
65394;BME280;52002;49.760;6.512;2023-06-19T08:40:42;99819.98;;;33.65;33.37
65394;BME280;52002;49.760;6.512;2023-06-19T08:43:08;99820.16;;;33.76;33.58
65394;BME280;52002;49.760;6.512;2023-06-19T08:45:34;99818.80;;;33.71;33.80
65394;BME280;52002;49.760;6.512;2023-06-19T08:48:00;99824.48;;;34.21;33.57
65394;BME280;52002;49.760;6.512;2023-06-19T08:50:31;99820.35;;;34.13;33.34
65394;BME280;52002;49.760;6.512;2023-06-19T08:52:57;99818.75;;;33.61;33.61
65394;BME280;52002;49.760;6.512;2023-06-19T08:55:23;99823.08;;;33.07;34.01
65394;BME280;52002;49.760;6.512;2023-06-19T08:57:49;99822.98;;;32.46;34.54
65394;BME280;52002;49.760;6.512;2023-06-19T09:00:29;99817.58;;;31.84;35.12
65394;BME280;52002;49.760;6.512;2023-06-19T09:03:02;99815.67;;;31.91;35.65
65394;BME280;52002;49.760;6.512;2023-06-19T09:05:28;99816.92;;;31.82;35.86
65394;BME280;52002;49.760;6.512;2023-06-19T09:07:59;99818.52;;;31.86;36.10
65394;BME280;52002;49.760;6.512;2023-06-19T09:10:28;99817.04;;;31.95;36.13
65394;BME280;52002;49.760;6.512;2023-06-19T09:13:01;99814.96;;;32.10;36.06
65394;BME280;52002;49.760;6.512;2023-06-19T09:15:29;99811.45;;;32.16;36.04
65394;BME280;52002;49.760;6.512;2023-06-19T09:20:31;99808.91;;;31.73;36.61
65394;BME280;52002;49.760;6.512;2023-06-19T09:22:57;99810.74;;;31.67;36.57
65394;BME280;52002;49.760;6.512;2023-06-19T09:25:23;99809.00;;;31.61;36.92
65394;BME280;52002;49.760;6.512;2023-06-19T09:27:50;99810.84;;;31.59;37.36
65394;BME280;52002;49.760;6.512;2023-06-19T09:30:16;99803.80;;;31.63;37.23
65394;BME280;52002;49.760;6.512;2023-06-19T09:32:41;99802.05;;;31.61;36.72
65394;BME280;52002;49.760;6.512;2023-06-19T09:35:07;99802.53;;;31.49;37.20
65394;BME280;52002;49.760;6.512;2023-06-19T09:37:32;99804.25;;;31.29;37.33
65394;BME280;52002;49.760;6.512;2023-06-19T09:40:00;99804.55;;;31.09;37.62
65394;BME280;52002;49.760;6.512;2023-06-19T09:42:31;99802.97;;;31.03;37.93
65394;BME280;52002;49.760;6.512;2023-06-19T09:45:05;99802.38;;;30.91;37.71
65394;BME280;52002;49.760;6.512;2023-06-19T09:47:53;99799.02;;;30.58;37.34
65394;BME280;52002;49.760;6.512;2023-06-19T09:50:22;99809.11;;;30.26;38.10
65394;BME280;52002;49.760;6.512;2023-06-19T09:52:52;99805.55;;;30.04;37.89
65394;BME280;52002;49.760;6.512;2023-06-19T09:55:19;99806.44;;;30.02;38.53
65394;BME280;52002;49.760;6.512;2023-06-19T09:57:44;99807.71;;;30.04;38.92
65394;BME280;52002;49.760;6.512;2023-06-19T10:00:11;99802.96;;;30.08;38.81
65394;BME280;52002;49.760;6.512;2023-06-19T10:02:48;99802.05;;;29.98;38.51
65394;BME280;52002;49.760;6.512;2023-06-19T10:05:14;99796.95;;;29.91;38.57
65394;BME280;52002;49.760;6.512;2023-06-19T10:07:44;99793.10;;;30.01;38.36
65394;BME280;52002;49.760;6.512;2023-06-19T10:10:21;99788.03;;;29.98;38.58
65394;BME280;52002;49.760;6.512;2023-06-19T10:12:47;99784.62;;;29.89;38.93
65394;BME280;52002;49.760;6.512;2023-06-19T10:15:24;99783.07;;;29.66;38.46
65394;BME280;52002;49.760;6.512;2023-06-19T10:20:27;99777.20;;;29.16;38.83
65394;BME280;52002;49.760;6.512;2023-06-19T10:23:07;99778.59;;;29.09;39.12
65394;BME280;52002;49.760;6.512;2023-06-19T10:25:38;99778.14;;;29.26;38.95
65394;BME280;52002;49.760;6.512;2023-06-19T10:28:15;99772.91;;;29.34;38.77
65394;BME280;52002;49.760;6.512;2023-06-19T10:30:41;99774.45;;;29.15;38.78
65394;BME280;52002;49.760;6.512;2023-06-19T10:33:06;99770.58;;;29.13;39.38
65394;BME280;52002;49.760;6.512;2023-06-19T10:35:41;99765.58;;;29.23;39.62
65394;BME280;52002;49.760;6.512;2023-06-19T10:38:09;99763.97;;;29.31;39.47
65394;BME280;52002;49.760;6.512;2023-06-19T10:40:36;99763.86;;;29.29;39.39
65394;BME280;52002;49.760;6.512;2023-06-19T10:43:03;99758.91;;;29.29;39.27
65394;BME280;52002;49.760;6.512;2023-06-19T10:45:29;99762.42;;;29.39;39.43
65394;BME280;52002;49.760;6.512;2023-06-19T10:47:55;99768.19;;;29.47;38.93
65394;BME280;52002;49.760;6.512;2023-06-19T10:50:22;99763.22;;;29.41;38.76
65394;BME280;52002;49.760;6.512;2023-06-19T10:52:48;99763.61;;;29.26;38.54
65394;BME280;52002;49.760;6.512;2023-06-19T10:55:17;99768.10;;;29.22;38.79
65394;BME280;52002;49.760;6.512;2023-06-19T10:57:46;99770.59;;;29.24;38.17
65394;BME280;52002;49.760;6.512;2023-06-19T11:00:28;99767.55;;;29.30;38.40
65394;BME280;52002;49.760;6.512;2023-06-19T11:02:56;99768.57;;;29.57;38.17
65394;BME280;52002;49.760;6.512;2023-06-19T11:05:22;99763.48;;;29.83;37.80
65394;BME280;52002;49.760;6.512;2023-06-19T11:07:56;99768.63;;;29.96;37.86
65394;BME280;52002;49.760;6.512;2023-06-19T11:10:25;99770.99;;;30.12;37.44
65394;BME280;52002;49.760;6.512;2023-06-19T11:12:56;99768.36;;;30.21;36.96
65394;BME280;52002;49.760;6.512;2023-06-19T11:15:31;99767.16;;;30.26;37.09
65394;BME280;52002;49.760;6.512;2023-06-19T11:17:58;99766.01;;;30.32;37.40
65394;BME280;52002;49.760;6.512;2023-06-19T11:20:24;99766.39;;;30.46;37.25
65394;BME280;52002;49.760;6.512;2023-06-19T11:23:00;99768.70;;;30.51;36.95
65394;BME280;52002;49.760;6.512;2023-06-19T11:25:40;99763.05;;;30.52;36.49
65394;BME280;52002;49.760;6.512;2023-06-19T11:28:13;99760.30;;;30.68;36.69
65394;BME280;52002;49.760;6.512;2023-06-19T11:30:39;99759.84;;;30.79;36.59
65394;BME280;52002;49.760;6.512;2023-06-19T11:33:34;99757.40;;;30.91;36.25
65394;BME280;52002;49.760;6.512;2023-06-19T11:36:01;99753.34;;;31.02;35.53
65394;BME280;52002;49.760;6.512;2023-06-19T11:38:28;99756.84;;;30.99;35.50
65394;BME280;52002;49.760;6.512;2023-06-19T11:40:55;99753.59;;;30.94;35.23
65394;BME280;52002;49.760;6.512;2023-06-19T11:43:39;99748.91;;;30.92;35.21
65394;BME280;52002;49.760;6.512;2023-06-19T11:46:05;99749.55;;;30.98;35.39
65394;BME280;52002;49.760;6.512;2023-06-19T11:48:31;99749.42;;;31.12;35.63
65394;BME280;52002;49.760;6.512;2023-06-19T11:50:57;99753.02;;;31.10;35.70
65394;BME280;52002;49.760;6.512;2023-06-19T11:53:24;99749.36;;;31.09;35.72
65394;BME280;52002;49.760;6.512;2023-06-19T11:55:52;99745.35;;;31.15;36.04
65394;BME280;52002;49.760;6.512;2023-06-19T11:58:18;99746.94;;;31.11;35.33
65394;BME280;52002;49.760;6.512;2023-06-19T12:00:47;99740.04;;;31.10;35.08
65394;BME280;52002;49.760;6.512;2023-06-19T12:03:13;99736.23;;;31.13;34.58
65394;BME280;52002;49.760;6.512;2023-06-19T12:05:39;99729.85;;;31.08;34.61
65394;BME280;52002;49.760;6.512;2023-06-19T12:08:04;99727.52;;;30.94;34.43
65394;BME280;52002;49.760;6.512;2023-06-19T12:10:31;99724.96;;;30.75;34.83
65394;BME280;52002;49.760;6.512;2023-06-19T12:12:56;99728.69;;;30.59;35.28
65394;BME280;52002;49.760;6.512;2023-06-19T12:15:22;99733.63;;;30.45;35.37
65394;BME280;52002;49.760;6.512;2023-06-19T12:17:48;99733.35;;;30.26;35.50
65394;BME280;52002;49.760;6.512;2023-06-19T12:20:13;99728.72;;;30.15;35.98
65394;BME280;52002;49.760;6.512;2023-06-19T12:22:40;99728.94;;;30.02;35.40
65394;BME280;52002;49.760;6.512;2023-06-19T12:25:06;99728.11;;;29.92;36.21
65394;BME280;52002;49.760;6.512;2023-06-19T12:27:32;99729.48;;;29.85;36.43
65394;BME280;52002;49.760;6.512;2023-06-19T12:29:57;99732.55;;;29.83;36.74
65394;BME280;52002;49.760;6.512;2023-06-19T12:32:23;99734.55;;;29.86;36.97
65394;BME280;52002;49.760;6.512;2023-06-19T12:34:48;99725.80;;;29.92;36.84
65394;BME280;52002;49.760;6.512;2023-06-19T12:37:15;99726.79;;;30.01;36.73
65394;BME280;52002;49.760;6.512;2023-06-19T12:39:44;99728.66;;;30.15;36.47
65394;BME280;52002;49.760;6.512;2023-06-19T12:42:09;99732.36;;;30.35;36.39
65394;BME280;52002;49.760;6.512;2023-06-19T12:44:39;99729.79;;;30.57;36.22
65394;BME280;52002;49.760;6.512;2023-06-19T12:47:05;99720.14;;;30.72;35.88
65394;BME280;52002;49.760;6.512;2023-06-19T12:49:31;99714.54;;;30.77;35.90
65394;BME280;52002;49.760;6.512;2023-06-19T12:51:57;99717.08;;;30.79;36.03
65394;BME280;52002;49.760;6.512;2023-06-19T12:54:22;99718.84;;;30.86;35.81
65394;BME280;52002;49.760;6.512;2023-06-19T12:56:48;99714.09;;;30.92;35.56
65394;BME280;52002;49.760;6.512;2023-06-19T12:59:14;99715.02;;;31.06;34.87
65394;BME280;52002;49.760;6.512;2023-06-19T13:01:40;99711.04;;;31.18;34.76
65394;BME280;52002;49.760;6.512;2023-06-19T13:04:06;99709.30;;;31.29;34.85